sensor_id;sensor_type;location;lat;lon;timestamp;P1;durP1;ratioP1;P2;durP2;ratioP2
45792;SDS011;31495;42.740;22.908;2023-12-14T00:00:33;30.10;;;17.77;;
45792;SDS011;31495;42.740;22.908;2023-12-14T00:01:33;31.60;;;18.70;;
45792;SDS011;31495;42.740;22.908;2023-12-14T00:02:33;35.97;;;19.02;;
45792;SDS011;31495;42.740;22.908;2023-12-14T00:03:33;32.70;;;19.92;;
45792;SDS011;31495;42.740;22.908;2023-12-14T00:04:33;33.00;;;20.80;;
45792;SDS011;31495;42.740;22.908;2023-12-14T00:05:32;32.47;;;20.67;;
45792;SDS011;31495;42.740;22.908;2023-12-14T00:06:32;34.33;;;20.83;;
45792;SDS011;31495;42.740;22.908;2023-12-14T00:07:31;31.88;;;20.65;;
45792;SDS011;31495;42.740;22.908;2023-12-14T00:08:31;34.90;;;20.10;;
45792;SDS011;31495;42.740;22.908;2023-12-14T00:09:31;37.60;;;22.55;;
45792;SDS011;31495;42.740;22.908;2023-12-14T00:10:31;36.85;;;20.60;;
45792;SDS011;31495;42.740;22.908;2023-12-14T00:11:31;34.92;;;19.58;;
45792;SDS011;31495;42.740;22.908;2023-12-14T00:12:31;33.72;;;20.83;;
45792;SDS011;31495;42.740;22.908;2023-12-14T00:13:33;37.20;;;20.98;;
45792;SDS011;31495;42.740;22.908;2023-12-14T00:14:33;36.15;;;20.58;;
45792;SDS011;31495;42.740;22.908;2023-12-14T00:15:33;36.05;;;21.52;;
45792;SDS011;31495;42.740;22.908;2023-12-14T00:16:32;39.10;;;23.15;;
45792;SDS011;31495;42.740;22.908;2023-12-14T00:17:32;39.60;;;23.38;;
45792;SDS011;31495;42.740;22.908;2023-12-14T00:18:32;42.30;;;25.67;;
45792;SDS011;31495;42.740;22.908;2023-12-14T00:19:32;39.83;;;24.58;;
45792;SDS011;31495;42.740;22.908;2023-12-14T00:20:32;40.30;;;25.85;;
45792;SDS011;31495;42.740;22.908;2023-12-14T00:21:32;39.35;;;24.10;;
45792;SDS011;31495;42.740;22.908;2023-12-14T00:22:35;41.58;;;24.02;;
45792;SDS011;31495;42.740;22.908;2023-12-14T00:23:34;43.80;;;24.60;;
45792;SDS011;31495;42.740;22.908;2023-12-14T00:24:34;38.35;;;23.25;;
45792;SDS011;31495;42.740;22.908;2023-12-14T00:25:33;38.92;;;24.77;;
45792;SDS011;31495;42.740;22.908;2023-12-14T00:26:33;39.20;;;24.75;;
45792;SDS011;31495;42.740;22.908;2023-12-14T00:27:33;44.08;;;24.38;;
45792;SDS011;31495;42.740;22.908;2023-12-14T00:28:33;51.55;;;29.20;;
45792;SDS011;31495;42.740;22.908;2023-12-14T00:29:33;55.25;;;28.10;;
45792;SDS011;31495;42.740;22.908;2023-12-14T00:30:33;48.78;;;28.08;;
45792;SDS011;31495;42.740;22.908;2023-12-14T00:31:33;45.05;;;27.92;;
45792;SDS011;31495;42.740;22.908;2023-12-14T00:32:33;45.63;;;27.27;;
45792;SDS011;31495;42.740;22.908;2023-12-14T00:33:33;54.33;;;30.75;;
45792;SDS011;31495;42.740;22.908;2023-12-14T00:34:36;48.35;;;27.55;;
45792;SDS011;31495;42.740;22.908;2023-12-14T00:35:36;51.47;;;29.33;;
45792;SDS011;31495;42.740;22.908;2023-12-14T00:36:35;50.35;;;28.02;;
45792;SDS011;31495;42.740;22.908;2023-12-14T00:37:35;45.47;;;27.20;;
45792;SDS011;31495;42.740;22.908;2023-12-14T00:38:34;69.50;;;39.47;;
45792;SDS011;31495;42.740;22.908;2023-12-14T00:39:34;64.25;;;35.95;;
45792;SDS011;31495;42.740;22.908;2023-12-14T00:40:34;54.40;;;31.95;;
45792;SDS011;31495;42.740;22.908;2023-12-14T00:41:34;52.50;;;31.08;;
45792;SDS011;31495;42.740;22.908;2023-12-14T00:42:34;52.67;;;30.50;;
45792;SDS011;31495;42.740;22.908;2023-12-14T00:43:34;48.03;;;28.85;;
45792;SDS011;31495;42.740;22.908;2023-12-14T00:44:35;54.40;;;31.33;;
45792;SDS011;31495;42.740;22.908;2023-12-14T00:45:34;43.17;;;26.17;;
45792;SDS011;31495;42.740;22.908;2023-12-14T00:46:34;47.20;;;26.40;;
45792;SDS011;31495;42.740;22.908;2023-12-14T00:47:35;47.92;;;26.20;;
45792;SDS011;31495;42.740;22.908;2023-12-14T00:48:35;38.35;;;22.80;;
45792;SDS011;31495;42.740;22.908;2023-12-14T00:49:35;47.47;;;26.40;;
45792;SDS011;31495;42.740;22.908;2023-12-14T00:50:35;43.15;;;24.50;;
45792;SDS011;31495;42.740;22.908;2023-12-14T00:51:35;45.35;;;24.80;;
45792;SDS011;31495;42.740;22.908;2023-12-14T00:52:35;40.92;;;24.30;;
45792;SDS011;31495;42.740;22.908;2023-12-14T00:53:35;43.40;;;25.83;;
45792;SDS011;31495;42.740;22.908;2023-12-14T00:54:35;40.30;;;25.00;;
45792;SDS011;31495;42.740;22.908;2023-12-14T00:55:35;39.15;;;24.40;;
45792;SDS011;31495;42.740;22.908;2023-12-14T00:56:35;42.35;;;24.50;;
45792;SDS011;31495;42.740;22.908;2023-12-14T00:57:35;43.55;;;24.67;;
45792;SDS011;31495;42.740;22.908;2023-12-14T00:58:35;49.58;;;26.42;;
45792;SDS011;31495;42.740;22.908;2023-12-14T00:59:36;45.28;;;25.23;;
45792;SDS011;31495;42.740;22.908;2023-12-14T01:00:36;44.22;;;25.30;;
45792;SDS011;31495;42.740;22.908;2023-12-14T01:01:36;46.08;;;26.23;;
45792;SDS011;31495;42.740;22.908;2023-12-14T01:02:36;45.20;;;24.83;;
45792;SDS011;31495;42.740;22.908;2023-12-14T01:03:36;43.75;;;24.95;;
45792;SDS011;31495;42.740;22.908;2023-12-14T01:04:36;40.42;;;23.35;;
45792;SDS011;31495;42.740;22.908;2023-12-14T01:05:36;40.90;;;23.00;;
45792;SDS011;31495;42.740;22.908;2023-12-14T01:06:36;41.75;;;25.02;;
45792;SDS011;31495;42.740;22.908;2023-12-14T01:07:35;47.90;;;26.83;;
45792;SDS011;31495;42.740;22.908;2023-12-14T01:08:36;50.67;;;26.58;;
45792;SDS011;31495;42.740;22.908;2023-12-14T01:09:36;45.42;;;25.95;;
45792;SDS011;31495;42.740;22.908;2023-12-14T01:10:36;45.13;;;23.95;;
45792;SDS011;31495;42.740;22.908;2023-12-14T01:11:36;39.53;;;24.30;;
45792;SDS011;31495;42.740;22.908;2023-12-14T01:12:37;44.10;;;24.05;;
45792;SDS011;31495;42.740;22.908;2023-12-14T01:13:37;41.03;;;23.40;;
45792;SDS011;31495;42.740;22.908;2023-12-14T01:14:37;42.20;;;24.17;;
45792;SDS011;31495;42.740;22.908;2023-12-14T01:15:37;40.83;;;22.70;;
45792;SDS011;31495;42.740;22.908;2023-12-14T01:16:37;41.83;;;24.08;;
45792;SDS011;31495;42.740;22.908;2023-12-14T01:17:37;45.03;;;24.17;;
45792;SDS011;31495;42.740;22.908;2023-12-14T01:18:37;49.95;;;25.05;;
45792;SDS011;31495;42.740;22.908;2023-12-14T01:19:39;44.10;;;24.00;;
45792;SDS011;31495;42.740;22.908;2023-12-14T01:20:40;47.60;;;25.98;;
45792;SDS011;31495;42.740;22.908;2023-12-14T01:21:39;45.00;;;25.77;;
45792;SDS011;31495;42.740;22.908;2023-12-14T01:22:38;43.67;;;24.77;;
45792;SDS011;31495;42.740;22.908;2023-12-14T01:23:38;44.97;;;25.27;;
45792;SDS011;31495;42.740;22.908;2023-12-14T01:24:38;49.08;;;24.85;;
45792;SDS011;31495;42.740;22.908;2023-12-14T01:25:38;44.30;;;24.33;;
45792;SDS011;31495;42.740;22.908;2023-12-14T01:26:38;48.88;;;25.35;;
45792;SDS011;31495;42.740;22.908;2023-12-14T01:27:38;42.70;;;24.38;;
45792;SDS011;31495;42.740;22.908;2023-12-14T01:28:38;46.75;;;25.08;;
45792;SDS011;31495;42.740;22.908;2023-12-14T01:29:38;46.35;;;24.25;;
45792;SDS011;31495;42.740;22.908;2023-12-14T01:30:38;42.72;;;24.00;;
45792;SDS011;31495;42.740;22.908;2023-12-14T01:31:38;43.35;;;24.15;;
45792;SDS011;31495;42.740;22.908;2023-12-14T01:32:38;41.75;;;23.20;;
45792;SDS011;31495;42.740;22.908;2023-12-14T01:33:38;45.85;;;25.08;;
45792;SDS011;31495;42.740;22.908;2023-12-14T01:34:38;44.55;;;23.75;;
45792;SDS011;31495;42.740;22.908;2023-12-14T01:35:38;40.92;;;24.08;;
45792;SDS011;31495;42.740;22.908;2023-12-14T01:36:39;47.17;;;25.30;;
45792;SDS011;31495;42.740;22.908;2023-12-14T01:37:39;47.25;;;25.67;;
45792;SDS011;31495;42.740;22.908;2023-12-14T01:38:38;47.58;;;24.70;;
45792;SDS011;31495;42.740;22.908;2023-12-14T01:39:39;44.90;;;23.70;;
45792;SDS011;31495;42.740;22.908;2023-12-14T01:40:39;42.30;;;22.67;;
45792;SDS011;31495;42.740;22.908;2023-12-14T01:41:39;39.35;;;22.33;;
45792;SDS011;31495;42.740;22.908;2023-12-14T01:42:38;41.92;;;22.95;;
45792;SDS011;31495;42.740;22.908;2023-12-14T01:43:41;36.20;;;20.30;;
45792;SDS011;31495;42.740;22.908;2023-12-14T01:44:40;41.13;;;20.45;;
45792;SDS011;31495;42.740;22.908;2023-12-14T01:45:40;39.20;;;22.60;;
45792;SDS011;31495;42.740;22.908;2023-12-14T01:46:40;40.92;;;22.58;;
45792;SDS011;31495;42.740;22.908;2023-12-14T01:47:40;42.13;;;22.65;;
45792;SDS011;31495;42.740;22.908;2023-12-14T01:48:40;37.63;;;21.33;;
45792;SDS011;31495;42.740;22.908;2023-12-14T01:49:40;35.65;;;20.23;;
45792;SDS011;31495;42.740;22.908;2023-12-14T01:50:40;38.75;;;19.75;;
45792;SDS011;31495;42.740;22.908;2023-12-14T01:51:40;34.92;;;20.27;;
45792;SDS011;31495;42.740;22.908;2023-12-14T01:52:40;36.40;;;20.48;;
45792;SDS011;31495;42.740;22.908;2023-12-14T01:53:40;35.20;;;19.67;;
45792;SDS011;31495;42.740;22.908;2023-12-14T01:54:40;34.45;;;18.88;;
45792;SDS011;31495;42.740;22.908;2023-12-14T01:55:40;36.80;;;19.00;;
45792;SDS011;31495;42.740;22.908;2023-12-14T01:56:40;31.77;;;17.80;;
45792;SDS011;31495;42.740;22.908;2023-12-14T01:57:40;35.30;;;19.10;;
45792;SDS011;31495;42.740;22.908;2023-12-14T01:58:40;32.53;;;18.73;;
45792;SDS011;31495;42.740;22.908;2023-12-14T01:59:40;34.17;;;18.30;;
45792;SDS011;31495;42.740;22.908;2023-12-14T02:01:52;31.20;;;16.80;;
45792;SDS011;31495;42.740;22.908;2023-12-14T02:02:55;26.58;;;15.15;;
45792;SDS011;31495;42.740;22.908;2023-12-14T02:03:54;31.02;;;15.20;;
45792;SDS011;31495;42.740;22.908;2023-12-14T02:04:54;31.75;;;18.45;;
45792;SDS011;31495;42.740;22.908;2023-12-14T02:05:54;27.98;;;15.07;;
45792;SDS011;31495;42.740;22.908;2023-12-14T02:06:53;25.65;;;14.95;;
45792;SDS011;31495;42.740;22.908;2023-12-14T02:07:52;30.10;;;16.48;;
45792;SDS011;31495;42.740;22.908;2023-12-14T02:08:52;28.77;;;14.93;;
45792;SDS011;31495;42.740;22.908;2023-12-14T02:09:51;31.50;;;16.05;;
45792;SDS011;31495;42.740;22.908;2023-12-14T02:10:51;31.38;;;15.88;;
45792;SDS011;31495;42.740;22.908;2023-12-14T02:11:50;25.00;;;13.88;;
45792;SDS011;31495;42.740;22.908;2023-12-14T02:12:50;23.25;;;13.60;;
45792;SDS011;31495;42.740;22.908;2023-12-14T02:13:49;30.70;;;18.40;;
45792;SDS011;31495;42.740;22.908;2023-12-14T02:14:49;30.23;;;17.35;;
45792;SDS011;31495;42.740;22.908;2023-12-14T02:15:48;28.83;;;18.15;;
45792;SDS011;31495;42.740;22.908;2023-12-14T02:16:47;31.80;;;16.83;;
45792;SDS011;31495;42.740;22.908;2023-12-14T02:17:47;27.88;;;17.30;;
45792;SDS011;31495;42.740;22.908;2023-12-14T02:18:46;26.35;;;15.68;;
45792;SDS011;31495;42.740;22.908;2023-12-14T02:19:47;31.65;;;16.95;;
45792;SDS011;31495;42.740;22.908;2023-12-14T02:20:46;30.67;;;16.52;;
45792;SDS011;31495;42.740;22.908;2023-12-14T02:21:45;34.65;;;18.20;;
45792;SDS011;31495;42.740;22.908;2023-12-14T02:22:48;25.77;;;16.05;;
45792;SDS011;31495;42.740;22.908;2023-12-14T02:23:54;24.90;;;14.57;;
45792;SDS011;31495;42.740;22.908;2023-12-14T02:24:54;25.38;;;16.33;;
45792;SDS011;31495;42.740;22.908;2023-12-14T02:25:53;25.95;;;14.35;;
45792;SDS011;31495;42.740;22.908;2023-12-14T02:26:53;26.02;;;15.38;;
45792;SDS011;31495;42.740;22.908;2023-12-14T02:27:53;30.30;;;14.80;;
45792;SDS011;31495;42.740;22.908;2023-12-14T02:28:52;34.63;;;16.17;;
45792;SDS011;31495;42.740;22.908;2023-12-14T02:29:52;27.30;;;13.90;;
45792;SDS011;31495;42.740;22.908;2023-12-14T02:30:51;29.17;;;15.52;;
45792;SDS011;31495;42.740;22.908;2023-12-14T02:31:51;25.13;;;15.23;;
45792;SDS011;31495;42.740;22.908;2023-12-14T02:32:50;25.65;;;14.02;;
45792;SDS011;31495;42.740;22.908;2023-12-14T02:33:50;27.48;;;15.00;;
45792;SDS011;31495;42.740;22.908;2023-12-14T02:34:49;26.95;;;14.80;;
45792;SDS011;31495;42.740;22.908;2023-12-14T02:35:48;25.42;;;14.02;;
45792;SDS011;31495;42.740;22.908;2023-12-14T02:36:48;23.63;;;13.73;;
45792;SDS011;31495;42.740;22.908;2023-12-14T02:37:47;21.23;;;12.40;;
45792;SDS011;31495;42.740;22.908;2023-12-14T02:38:48;20.98;;;11.05;;
45792;SDS011;31495;42.740;22.908;2023-12-14T02:39:47;18.38;;;11.77;;
45792;SDS011;31495;42.740;22.908;2023-12-14T02:40:46;23.30;;;12.48;;
45792;SDS011;31495;42.740;22.908;2023-12-14T02:41:47;24.55;;;12.82;;
45792;SDS011;31495;42.740;22.908;2023-12-14T02:42:46;24.65;;;13.00;;
45792;SDS011;31495;42.740;22.908;2023-12-14T02:43:45;24.80;;;13.68;;
45792;SDS011;31495;42.740;22.908;2023-12-14T02:44:46;18.17;;;11.27;;
45792;SDS011;31495;42.740;22.908;2023-12-14T02:45:45;21.98;;;13.25;;
45792;SDS011;31495;42.740;22.908;2023-12-14T02:46:45;20.33;;;12.65;;
45792;SDS011;31495;42.740;22.908;2023-12-14T02:47:44;22.95;;;13.05;;
45792;SDS011;31495;42.740;22.908;2023-12-14T02:48:46;25.02;;;14.43;;
45792;SDS011;31495;42.740;22.908;2023-12-14T02:49:46;23.25;;;13.27;;
45792;SDS011;31495;42.740;22.908;2023-12-14T02:50:45;21.67;;;12.13;;
45792;SDS011;31495;42.740;22.908;2023-12-14T02:51:45;20.90;;;12.98;;
45792;SDS011;31495;42.740;22.908;2023-12-14T02:52:45;22.80;;;12.68;;
45792;SDS011;31495;42.740;22.908;2023-12-14T02:53:44;21.52;;;13.40;;
45792;SDS011;31495;42.740;22.908;2023-12-14T02:54:45;22.15;;;13.30;;
45792;SDS011;31495;42.740;22.908;2023-12-14T02:55:45;22.45;;;13.50;;
45792;SDS011;31495;42.740;22.908;2023-12-14T02:56:45;25.20;;;14.85;;
45792;SDS011;31495;42.740;22.908;2023-12-14T02:57:46;27.15;;;14.48;;
45792;SDS011;31495;42.740;22.908;2023-12-14T02:58:45;33.15;;;16.42;;
45792;SDS011;31495;42.740;22.908;2023-12-14T02:59:50;20.75;;;13.00;;
45792;SDS011;31495;42.740;22.908;2023-12-14T03:00:49;32.50;;;16.85;;
45792;SDS011;31495;42.740;22.908;2023-12-14T03:01:49;39.15;;;17.60;;
45792;SDS011;31495;42.740;22.908;2023-12-14T03:02:48;34.08;;;16.52;;
45792;SDS011;31495;42.740;22.908;2023-12-14T03:03:48;30.77;;;16.70;;
45792;SDS011;31495;42.740;22.908;2023-12-14T03:04:47;31.25;;;16.60;;
45792;SDS011;31495;42.740;22.908;2023-12-14T03:05:47;45.25;;;19.92;;
45792;SDS011;31495;42.740;22.908;2023-12-14T03:06:48;38.00;;;20.50;;
45792;SDS011;31495;42.740;22.908;2023-12-14T03:07:48;42.97;;;22.02;;
45792;SDS011;31495;42.740;22.908;2023-12-14T03:08:47;38.53;;;20.23;;
45792;SDS011;31495;42.740;22.908;2023-12-14T03:09:47;39.00;;;19.13;;
45792;SDS011;31495;42.740;22.908;2023-12-14T03:10:47;30.60;;;17.08;;
45792;SDS011;31495;42.740;22.908;2023-12-14T03:11:47;31.33;;;17.63;;
45792;SDS011;31495;42.740;22.908;2023-12-14T03:12:47;34.45;;;19.95;;
45792;SDS011;31495;42.740;22.908;2023-12-14T03:13:47;32.72;;;19.20;;
45792;SDS011;31495;42.740;22.908;2023-12-14T03:14:47;38.28;;;19.55;;
45792;SDS011;31495;42.740;22.908;2023-12-14T03:15:47;38.40;;;21.05;;
45792;SDS011;31495;42.740;22.908;2023-12-14T03:16:48;43.22;;;24.10;;
45792;SDS011;31495;42.740;22.908;2023-12-14T03:17:48;43.20;;;25.30;;
45792;SDS011;31495;42.740;22.908;2023-12-14T03:18:47;43.47;;;24.25;;
45792;SDS011;31495;42.740;22.908;2023-12-14T03:19:51;40.08;;;22.45;;
45792;SDS011;31495;42.740;22.908;2023-12-14T03:20:50;49.47;;;26.40;;
45792;SDS011;31495;42.740;22.908;2023-12-14T03:21:50;60.83;;;28.50;;
45792;SDS011;31495;42.740;22.908;2023-12-14T03:22:49;61.80;;;30.05;;
45792;SDS011;31495;42.740;22.908;2023-12-14T03:23:49;56.17;;;28.38;;
45792;SDS011;31495;42.740;22.908;2023-12-14T03:24:49;63.33;;;31.33;;
45792;SDS011;31495;42.740;22.908;2023-12-14T03:25:48;59.30;;;28.92;;
45792;SDS011;31495;42.740;22.908;2023-12-14T03:26:48;57.67;;;28.80;;
45792;SDS011;31495;42.740;22.908;2023-12-14T03:27:48;57.70;;;30.50;;
45792;SDS011;31495;42.740;22.908;2023-12-14T03:28:51;77.40;;;33.53;;
45792;SDS011;31495;42.740;22.908;2023-12-14T03:29:51;63.88;;;33.17;;
45792;SDS011;31495;42.740;22.908;2023-12-14T03:30:50;59.53;;;30.92;;
45792;SDS011;31495;42.740;22.908;2023-12-14T03:31:50;62.47;;;31.30;;
45792;SDS011;31495;42.740;22.908;2023-12-14T03:32:49;49.00;;;24.95;;
45792;SDS011;31495;42.740;22.908;2023-12-14T03:33:49;54.78;;;26.23;;
45792;SDS011;31495;42.740;22.908;2023-12-14T03:34:49;47.10;;;24.30;;
45792;SDS011;31495;42.740;22.908;2023-12-14T03:35:49;37.13;;;18.58;;
45792;SDS011;31495;42.740;22.908;2023-12-14T03:36:48;41.85;;;19.35;;
45792;SDS011;31495;42.740;22.908;2023-12-14T03:37:49;43.28;;;22.30;;
45792;SDS011;31495;42.740;22.908;2023-12-14T03:38:49;32.05;;;16.65;;
45792;SDS011;31495;42.740;22.908;2023-12-14T03:39:49;45.60;;;21.20;;
45792;SDS011;31495;42.740;22.908;2023-12-14T03:40:48;41.97;;;20.92;;
45792;SDS011;31495;42.740;22.908;2023-12-14T03:41:49;41.72;;;22.15;;
45792;SDS011;31495;42.740;22.908;2023-12-14T03:42:49;54.95;;;24.70;;
45792;SDS011;31495;42.740;22.908;2023-12-14T03:43:50;50.55;;;23.98;;
45792;SDS011;31495;42.740;22.908;2023-12-14T03:44:50;50.20;;;25.38;;
45792;SDS011;31495;42.740;22.908;2023-12-14T03:45:50;51.00;;;24.92;;
45792;SDS011;31495;42.740;22.908;2023-12-14T03:46:50;49.78;;;24.63;;
45792;SDS011;31495;42.740;22.908;2023-12-14T03:47:50;54.92;;;27.48;;
45792;SDS011;31495;42.740;22.908;2023-12-14T03:48:50;56.80;;;27.38;;
45792;SDS011;31495;42.740;22.908;2023-12-14T03:49:50;45.03;;;23.25;;
45792;SDS011;31495;42.740;22.908;2023-12-14T03:50:50;44.78;;;22.95;;
45792;SDS011;31495;42.740;22.908;2023-12-14T03:51:50;28.08;;;14.55;;
45792;SDS011;31495;42.740;22.908;2023-12-14T03:52:50;27.75;;;14.30;;
45792;SDS011;31495;42.740;22.908;2023-12-14T03:53:50;30.65;;;16.67;;
45792;SDS011;31495;42.740;22.908;2023-12-14T03:54:50;36.25;;;18.80;;
45792;SDS011;31495;42.740;22.908;2023-12-14T03:55:51;39.53;;;19.45;;
45792;SDS011;31495;42.740;22.908;2023-12-14T03:56:51;24.33;;;13.93;;
45792;SDS011;31495;42.740;22.908;2023-12-14T03:57:51;27.95;;;14.55;;
45792;SDS011;31495;42.740;22.908;2023-12-14T03:58:51;28.52;;;15.80;;
45792;SDS011;31495;42.740;22.908;2023-12-14T03:59:51;35.15;;;16.77;;
45792;SDS011;31495;42.740;22.908;2023-12-14T04:00:51;29.85;;;17.60;;
45792;SDS011;31495;42.740;22.908;2023-12-14T04:01:51;28.65;;;16.52;;
45792;SDS011;31495;42.740;22.908;2023-12-14T04:02:51;29.60;;;16.60;;
45792;SDS011;31495;42.740;22.908;2023-12-14T04:03:51;34.08;;;18.02;;
45792;SDS011;31495;42.740;22.908;2023-12-14T04:04:50;32.25;;;18.52;;
45792;SDS011;31495;42.740;22.908;2023-12-14T04:05:51;34.90;;;18.38;;
45792;SDS011;31495;42.740;22.908;2023-12-14T04:06:52;31.08;;;18.83;;
45792;SDS011;31495;42.740;22.908;2023-12-14T04:07:52;32.05;;;17.02;;
45792;SDS011;31495;42.740;22.908;2023-12-14T04:08:52;26.35;;;15.27;;
45792;SDS011;31495;42.740;22.908;2023-12-14T04:09:52;29.52;;;15.43;;
45792;SDS011;31495;42.740;22.908;2023-12-14T04:10:52;32.83;;;18.42;;
45792;SDS011;31495;42.740;22.908;2023-12-14T04:11:52;31.08;;;19.63;;
45792;SDS011;31495;42.740;22.908;2023-12-14T04:12:52;32.17;;;18.42;;
45792;SDS011;31495;42.740;22.908;2023-12-14T04:13:52;31.08;;;17.13;;
45792;SDS011;31495;42.740;22.908;2023-12-14T04:14:52;24.35;;;13.77;;
45792;SDS011;31495;42.740;22.908;2023-12-14T04:15:55;26.40;;;16.17;;
45792;SDS011;31495;42.740;22.908;2023-12-14T04:16:55;28.83;;;15.65;;
45792;SDS011;31495;42.740;22.908;2023-12-14T04:17:54;26.25;;;16.30;;
45792;SDS011;31495;42.740;22.908;2023-12-14T04:18:54;32.15;;;17.00;;
45792;SDS011;31495;42.740;22.908;2023-12-14T04:19:53;32.47;;;17.42;;
45792;SDS011;31495;42.740;22.908;2023-12-14T04:20:53;30.38;;;18.83;;
45792;SDS011;31495;42.740;22.908;2023-12-14T04:21:53;35.28;;;21.02;;
45792;SDS011;31495;42.740;22.908;2023-12-14T04:22:53;36.80;;;22.38;;
45792;SDS011;31495;42.740;22.908;2023-12-14T04:23:53;34.58;;;20.98;;
45792;SDS011;31495;42.740;22.908;2023-12-14T04:24:53;31.98;;;20.27;;
45792;SDS011;31495;42.740;22.908;2023-12-14T04:25:53;28.00;;;17.98;;
45792;SDS011;31495;42.740;22.908;2023-12-14T04:26:53;30.77;;;17.65;;
45792;SDS011;31495;42.740;22.908;2023-12-14T04:27:53;25.17;;;15.98;;
45792;SDS011;31495;42.740;22.908;2023-12-14T04:28:53;27.60;;;16.10;;
45792;SDS011;31495;42.740;22.908;2023-12-14T04:29:54;34.70;;;17.17;;
45792;SDS011;31495;42.740;22.908;2023-12-14T04:30:54;37.85;;;19.27;;
45792;SDS011;31495;42.740;22.908;2023-12-14T04:31:54;37.55;;;17.65;;
45792;SDS011;31495;42.740;22.908;2023-12-14T04:32:54;31.38;;;15.48;;
45792;SDS011;31495;42.740;22.908;2023-12-14T04:33:54;30.13;;;17.10;;
45792;SDS011;31495;42.740;22.908;2023-12-14T04:34:54;25.58;;;15.60;;
45792;SDS011;31495;42.740;22.908;2023-12-14T04:35:54;25.65;;;15.07;;
45792;SDS011;31495;42.740;22.908;2023-12-14T04:36:54;21.52;;;13.20;;
45792;SDS011;31495;42.740;22.908;2023-12-14T04:37:56;28.52;;;15.73;;
45792;SDS011;31495;42.740;22.908;2023-12-14T04:38:56;26.38;;;15.32;;
45792;SDS011;31495;42.740;22.908;2023-12-14T04:39:55;24.42;;;14.23;;
45792;SDS011;31495;42.740;22.908;2023-12-14T04:40:54;24.10;;;14.15;;
45792;SDS011;31495;42.740;22.908;2023-12-14T04:41:55;24.40;;;14.35;;
45792;SDS011;31495;42.740;22.908;2023-12-14T04:42:55;24.08;;;14.45;;
45792;SDS011;31495;42.740;22.908;2023-12-14T04:43:55;19.02;;;12.38;;
45792;SDS011;31495;42.740;22.908;2023-12-14T04:44:55;21.77;;;12.80;;
45792;SDS011;31495;42.740;22.908;2023-12-14T04:45:55;29.35;;;14.23;;
45792;SDS011;31495;42.740;22.908;2023-12-14T04:46:55;28.83;;;15.77;;
45792;SDS011;31495;42.740;22.908;2023-12-14T04:47:55;33.40;;;18.05;;
45792;SDS011;31495;42.740;22.908;2023-12-14T04:48:55;26.05;;;16.45;;
45792;SDS011;31495;42.740;22.908;2023-12-14T04:49:55;24.48;;;14.57;;
45792;SDS011;31495;42.740;22.908;2023-12-14T04:50:55;28.25;;;16.08;;
45792;SDS011;31495;42.740;22.908;2023-12-14T04:51:55;28.33;;;16.05;;
45792;SDS011;31495;42.740;22.908;2023-12-14T04:52:55;27.20;;;14.95;;
45792;SDS011;31495;42.740;22.908;2023-12-14T04:53:56;34.92;;;17.98;;
45792;SDS011;31495;42.740;22.908;2023-12-14T04:54:56;32.70;;;17.63;;
45792;SDS011;31495;42.740;22.908;2023-12-14T04:55:56;44.72;;;22.95;;
45792;SDS011;31495;42.740;22.908;2023-12-14T04:56:55;32.53;;;17.92;;
45792;SDS011;31495;42.740;22.908;2023-12-14T04:57:58;27.58;;;17.40;;
45792;SDS011;31495;42.740;22.908;2023-12-14T04:58:58;29.80;;;17.45;;
45792;SDS011;31495;42.740;22.908;2023-12-14T04:59:57;31.83;;;17.63;;
45792;SDS011;31495;42.740;22.908;2023-12-14T05:00:56;38.40;;;20.15;;
45792;SDS011;31495;42.740;22.908;2023-12-14T05:01:56;80.50;;;34.67;;
45792;SDS011;31495;42.740;22.908;2023-12-14T05:02:56;61.97;;;30.38;;
45792;SDS011;31495;42.740;22.908;2023-12-14T05:03:56;52.80;;;26.08;;
45792;SDS011;31495;42.740;22.908;2023-12-14T05:04:56;51.13;;;27.00;;
45792;SDS011;31495;42.740;22.908;2023-12-14T05:05:57;54.78;;;26.30;;
45792;SDS011;31495;42.740;22.908;2023-12-14T05:06:56;49.85;;;24.33;;
45792;SDS011;31495;42.740;22.908;2023-12-14T05:07:56;54.45;;;26.48;;
45792;SDS011;31495;42.740;22.908;2023-12-14T05:08:59;51.20;;;24.90;;
45792;SDS011;31495;42.740;22.908;2023-12-14T05:10:02;47.35;;;24.25;;
45792;SDS011;31495;42.740;22.908;2023-12-14T05:11:02;49.13;;;24.10;;
45792;SDS011;31495;42.740;22.908;2023-12-14T05:12:02;51.88;;;24.50;;
45792;SDS011;31495;42.740;22.908;2023-12-14T05:13:02;53.72;;;25.60;;
45792;SDS011;31495;42.740;22.908;2023-12-14T05:14:02;49.03;;;23.17;;
45792;SDS011;31495;42.740;22.908;2023-12-14T05:15:03;43.85;;;22.25;;
45792;SDS011;31495;42.740;22.908;2023-12-14T05:16:06;45.78;;;23.20;;
45792;SDS011;31495;42.740;22.908;2023-12-14T05:17:11;40.05;;;23.33;;
45792;SDS011;31495;42.740;22.908;2023-12-14T05:18:10;41.78;;;22.45;;
45792;SDS011;31495;42.740;22.908;2023-12-14T05:19:10;41.42;;;23.13;;
45792;SDS011;31495;42.740;22.908;2023-12-14T05:20:10;43.95;;;23.30;;
45792;SDS011;31495;42.740;22.908;2023-12-14T05:21:12;50.42;;;25.35;;
45792;SDS011;31495;42.740;22.908;2023-12-14T05:22:16;54.00;;;25.35;;
45792;SDS011;31495;42.740;22.908;2023-12-14T05:23:16;46.67;;;24.85;;
45792;SDS011;31495;42.740;22.908;2023-12-14T05:24:15;42.08;;;23.27;;
45792;SDS011;31495;42.740;22.908;2023-12-14T05:25:15;45.28;;;23.45;;
45792;SDS011;31495;42.740;22.908;2023-12-14T05:26:14;37.97;;;21.50;;
45792;SDS011;31495;42.740;22.908;2023-12-14T05:27:14;40.50;;;22.42;;
45792;SDS011;31495;42.740;22.908;2023-12-14T05:28:14;36.75;;;21.38;;
45792;SDS011;31495;42.740;22.908;2023-12-14T05:29:13;35.13;;;22.17;;
45792;SDS011;31495;42.740;22.908;2023-12-14T05:30:12;31.92;;;20.88;;
45792;SDS011;31495;42.740;22.908;2023-12-14T05:31:12;38.28;;;23.60;;
45792;SDS011;31495;42.740;22.908;2023-12-14T05:32:12;42.63;;;24.02;;
45792;SDS011;31495;42.740;22.908;2023-12-14T05:33:11;34.17;;;21.83;;
45792;SDS011;31495;42.740;22.908;2023-12-14T05:34:11;31.90;;;21.08;;
45792;SDS011;31495;42.740;22.908;2023-12-14T05:35:10;30.50;;;18.88;;
45792;SDS011;31495;42.740;22.908;2023-12-14T05:36:10;33.08;;;19.13;;
45792;SDS011;31495;42.740;22.908;2023-12-14T05:37:10;34.20;;;20.15;;
45792;SDS011;31495;42.740;22.908;2023-12-14T05:38:09;29.90;;;19.02;;
45792;SDS011;31495;42.740;22.908;2023-12-14T05:39:09;33.92;;;20.45;;
45792;SDS011;31495;42.740;22.908;2023-12-14T05:40:09;32.92;;;17.92;;
45792;SDS011;31495;42.740;22.908;2023-12-14T05:41:09;33.42;;;21.30;;
45792;SDS011;31495;42.740;22.908;2023-12-14T05:42:09;35.92;;;21.10;;
45792;SDS011;31495;42.740;22.908;2023-12-14T05:43:09;36.72;;;21.10;;
45792;SDS011;31495;42.740;22.908;2023-12-14T05:44:09;30.80;;;19.23;;
45792;SDS011;31495;42.740;22.908;2023-12-14T05:45:09;39.75;;;21.05;;
45792;SDS011;31495;42.740;22.908;2023-12-14T05:46:08;36.53;;;21.05;;
45792;SDS011;31495;42.740;22.908;2023-12-14T05:47:08;34.58;;;20.88;;